Time;durP1;ratioP1;P1;durP2;ratioP2;P2;SDS_P1;SDS_P2;PMS_P1;PMS_P2;Temp;Humidity;BMP_temperature;BMP_pressure;BME280_temperature;BME280_humidity;BME280_pressure;Samples;Min_cycle;Max_cycle;Signal;HPM_P1;HPM_P2
2022/08/02 00:00:17;;;;;;;1.90;1.80;;;21.20;99.90;;;;;;6125321;23;20212;-72
2022/08/02 00:02:44;;;;;;;6.30;1.80;;;21.20;99.90;;;;;;6125503;23;20154;-72
2022/08/02 00:05:11;;;;;;;1.77;1.67;;;21.20;99.90;;;;;;6125306;23;20194;-72
2022/08/02 00:07:36;;;;;;;1.85;1.85;;;21.10;99.90;;;;;;6125744;23;20182;-71
2022/08/02 00:10:04;;;;;;;2.00;1.90;;;21.10;99.90;;;;;;6125014;23;20157;-71
2022/08/02 00:12:29;;;;;;;2.33;1.95;;;21.00;99.90;;;;;;6125698;23;20178;-72
2022/08/02 00:14:55;;;;;;;1.75;1.70;;;20.90;99.90;;;;;;6125461;23;20178;-72
2022/08/02 00:17:21;;;;;;;1.80;1.70;;;20.80;99.90;;;;;;6125163;23;20154;-72
2022/08/02 00:19:46;;;;;;;1.70;1.70;;;20.70;99.90;;;;;;6125150;23;20150;-72
2022/08/02 00:22:12;;;;;;;2.85;2.15;;;20.50;99.90;;;;;;6125054;23;20595;-72
2022/08/02 00:24:38;;;;;;;1.63;1.63;;;20.60;99.90;;;;;;6125396;23;20192;-71
2022/08/02 00:27:03;;;;;;;1.98;1.88;;;20.50;99.90;;;;;;6125253;23;20135;-72
2022/08/02 00:29:30;;;;;;;2.30;2.10;;;20.60;99.90;;;;;;6124966;23;20176;-74
2022/08/02 00:31:56;;;;;;;1.80;1.70;;;20.60;99.90;;;;;;6124767;23;20204;-74
2022/08/02 00:34:23;;;;;;;1.83;1.73;;;20.60;99.90;;;;;;6124967;23;20174;-74
2022/08/02 00:36:48;;;;;;;2.00;1.90;;;20.40;99.90;;;;;;6125216;23;20490;-74
2022/08/02 00:39:14;;;;;;;1.52;1.52;;;20.40;99.90;;;;;;6124837;23;20233;-74
2022/08/02 00:41:48;;;;;;;2.00;1.90;;;20.30;99.90;;;;;;6124934;23;20154;-74
2022/08/02 00:44:15;;;;;;;1.67;1.58;;;20.20;99.90;;;;;;6124917;23;20257;-74
2022/08/02 00:46:41;;;;;;;2.03;1.92;;;20.20;99.90;;;;;;6125174;23;20591;-74
2022/08/02 00:49:07;;;;;;;1.90;1.80;;;20.10;99.90;;;;;;6124805;23;20156;-74
2022/08/02 00:51:32;;;;;;;2.10;1.90;;;20.00;99.90;;;;;;6124733;23;20576;-74
2022/08/02 00:53:58;;;;;;;4.25;2.28;;;19.90;99.90;;;;;;6124901;23;20173;-74
2022/08/02 00:56:24;;;;;;;2.25;2.05;;;19.90;99.90;;;;;;6125160;23;20642;-73
2022/08/02 00:58:49;;;;;;;1.70;1.60;;;19.90;99.90;;;;;;6124635;23;20146;-74
2022/08/02 01:01:15;;;;;;;2.30;2.20;;;19.90;99.90;;;;;;6124676;23;20147;-73
2022/08/02 01:03:41;;;;;;;1.52;1.35;;;19.80;99.90;;;;;;6124667;23;20150;-73
2022/08/02 01:06:06;;;;;;;2.08;1.98;;;19.70;99.90;;;;;;6124857;23;20169;-73
2022/08/02 01:08:32;;;;;;;2.17;2.08;;;19.70;99.90;;;;;;6124123;23;20260;-73
2022/08/02 01:10:58;;;;;;;2.40;2.30;;;19.70;99.90;;;;;;6125114;23;20631;-73
2022/08/02 01:13:24;;;;;;;3.03;1.70;;;19.70;99.90;;;;;;6124900;23;20150;-74
2022/08/02 01:16:17;;;;;;;1.98;1.90;;;19.80;99.90;;;;;;6125052;23;20204;-73
2022/08/02 01:18:50;;;;;;;1.85;1.75;;;19.70;99.90;;;;;;6115035;23;20166;-74
2022/08/02 01:21:31;;;;;;;2.00;1.90;;;19.70;99.90;;;;;;6125016;23;20611;-73
2022/08/02 01:24:18;;;;;;;2.35;2.00;;;19.70;99.90;;;;;;6124798;23;20169;-72
2022/08/02 01:27:01;;;;;;;2.72;2.00;;;19.50;99.90;;;;;;6098675;23;20154;-72
2022/08/02 01:29:44;;;;;;;2.58;2.10;;;19.50;99.90;;;;;;6124468;23;20560;-72
2022/08/02 01:32:22;;;;;;;2.13;2.03;;;19.50;99.90;;;;;;6124875;23;20154;-72
2022/08/02 01:35:08;;;;;;;2.08;1.98;;;19.40;99.90;;;;;;6124618;23;20169;-73
2022/08/02 01:37:43;;;;;;;2.00;1.90;;;19.30;99.90;;;;;;6124718;23;20177;-74
2022/08/02 01:40:11;;;;;;;1.80;1.70;;;19.20;99.90;;;;;;6124588;23;20141;-74
2022/08/02 01:42:44;;;;;;;1.80;1.70;;;19.10;99.90;;;;;;6124088;23;20150;-74
2022/08/02 01:45:12;;;;;;;2.55;2.10;;;19.10;99.90;;;;;;6124590;23;20704;-74
2022/08/02 01:47:39;;;;;;;2.75;2.00;;;18.90;99.90;;;;;;6124680;23;20201;-74
2022/08/02 01:50:07;;;;;;;2.50;2.30;;;18.90;99.90;;;;;;6124338;23;20174;-73
2022/08/02 01:52:36;;;;;;;2.10;2.00;;;18.80;99.90;;;;;;6124396;23;20154;-73
2022/08/02 01:55:34;;;;;;;2.20;2.00;;;18.70;99.90;;;;;;6124851;23;20630;-74
2022/08/02 01:58:03;;;;;;;2.35;2.15;;;18.80;99.90;;;;;;6107348;23;20162;-74
2022/08/02 02:00:33;;;;;;;2.15;1.98;;;18.80;99.90;;;;;;6124115;23;20619;-74
2022/08/02 02:03:01;;;;;;;2.25;2.15;;;19.00;99.90;;;;;;6124576;23;20237;-74
2022/08/02 02:05:29;;;;;;;2.17;2.08;;;19.00;99.90;;;;;;6124352;23;20189;-74
2022/08/02 02:07:58;;;;;;;2.40;2.20;;;19.00;99.90;;;;;;6124382;23;20146;-74
2022/08/02 02:10:28;;;;;;;2.25;2.10;;;19.00;99.90;;;;;;6124455;23;20528;-74
2022/08/02 02:12:56;;;;;;;2.22;1.98;;;18.90;99.90;;;;;;6124503;23;20156;-74
2022/08/02 02:15:23;;;;;;;2.95;2.17;;;18.90;99.90;;;;;;6124400;23;20181;-74
2022/08/02 02:17:51;;;;;;;2.17;1.80;;;18.90;99.90;;;;;;6124340;23;20205;-74
2022/08/02 02:20:19;;;;;;;2.35;2.25;;;18.90;99.90;;;;;;6124227;23;20536;-74
2022/08/02 02:22:46;;;;;;;1.90;1.80;;;18.90;99.90;;;;;;6124544;23;20154;-74
2022/08/02 02:25:14;;;;;;;2.17;2.08;;;18.80;99.90;;;;;;6124116;23;20193;-73
2022/08/02 02:27:56;;;;;;;2.40;2.20;;;18.70;99.90;;;;;;6124412;23;20587;-73
2022/08/02 02:30:24;;;;;;;3.33;2.10;;;18.70;99.90;;;;;;6124228;23;20139;-74
2022/08/02 02:32:54;;;;;;;2.10;1.98;;;18.70;99.90;;;;;;6123866;23;20146;-73
2022/08/02 02:35:21;;;;;;;3.50;2.55;;;18.70;99.90;;;;;;6124019;23;20188;-73
2022/08/02 02:37:48;;;;;;;2.13;1.95;;;18.70;99.90;;;;;;6124094;23;20150;-73
2022/08/02 02:40:15;;;;;;;2.10;2.00;;;18.60;99.90;;;;;;6124083;23;20154;-74
2022/08/02 02:42:42;;;;;;;2.25;2.05;;;18.50;99.90;;;;;;6124083;23;20154;-73
2022/08/02 02:45:10;;;;;;;3.65;2.17;;;18.40;99.90;;;;;;6125180;23;20216;-73
2022/08/02 02:47:36;;;;;;;2.20;2.10;;;18.40;99.90;;;;;;6126433;23;20154;-73
2022/08/02 02:50:02;;;;;;;2.13;2.00;;;18.40;99.90;;;;;;6126043;23;20196;-73
2022/08/02 02:52:28;;;;;;;2.03;1.92;;;18.30;99.90;;;;;;6125935;23;20158;-73
2022/08/02 02:54:55;;;;;;;2.13;2.00;;;18.40;99.90;;;;;;6126272;23;20261;-73
2022/08/02 02:57:21;;;;;;;2.42;2.30;;;18.50;99.90;;;;;;6126227;23;20494;-73
2022/08/02 02:59:47;;;;;;;2.67;2.17;;;18.50;99.90;;;;;;6125688;23;20154;-73
2022/08/02 03:02:14;;;;;;;2.08;1.98;;;18.40;99.90;;;;;;6123593;23;20606;-73
2022/08/02 03:04:41;;;;;;;2.50;2.30;;;18.40;99.90;;;;;;6125404;23;20197;-74
2022/08/02 03:07:09;;;;;;;2.47;2.28;;;18.40;99.90;;;;;;6126173;23;20146;-74
2022/08/02 03:09:34;;;;;;;2.10;2.00;;;18.40;99.90;;;;;;6125791;23;20176;-74
2022/08/02 03:12:01;;;;;;;2.20;2.10;;;18.40;99.90;;;;;;6125773;23;20607;-75
2022/08/02 03:14:27;;;;;;;2.30;2.20;;;18.30;99.90;;;;;;6125934;23;20174;-75
2022/08/02 03:16:54;;;;;;;1.95;1.85;;;18.20;99.90;;;;;;6126219;23;20161;-75
2022/08/02 03:19:20;;;;;;;2.38;2.22;;;18.10;99.90;;;;;;6125601;23;20217;-75
2022/08/02 03:21:48;;;;;;;2.22;2.08;;;18.10;99.90;;;;;;6125915;23;20150;-75
2022/08/02 03:24:14;;;;;;;2.13;2.03;;;18.10;99.90;;;;;;6125483;23;20264;-74
2022/08/02 03:26:40;;;;;;;3.80;2.30;;;18.10;99.90;;;;;;6125965;23;20150;-75
2022/08/02 03:29:06;;;;;;;2.55;2.40;;;18.00;99.90;;;;;;6125542;23;20221;-75
2022/08/02 03:31:32;;;;;;;3.20;2.63;;;18.00;99.90;;;;;;6126021;23;20150;-74
2022/08/02 03:33:59;;;;;;;2.55;2.35;;;18.00;99.90;;;;;;6125496;23;20501;-76
2022/08/02 03:36:29;;;;;;;2.75;2.25;;;18.00;99.90;;;;;;6125984;23;20209;-75
2022/08/02 03:38:55;;;;;;;2.88;2.67;;;18.00;99.90;;;;;;6125796;23;20141;-74
2022/08/02 03:41:22;;;;;;;3.08;2.80;;;18.00;99.90;;;;;;6125866;23;20618;-74
2022/08/02 03:43:49;;;;;;;3.17;2.80;;;17.90;99.90;;;;;;6125301;23;20201;-74
2022/08/02 03:46:19;;;;;;;3.40;3.20;;;17.80;99.90;;;;;;6125864;23;20154;-75
2022/08/02 03:48:46;;;;;;;2.60;2.50;;;17.80;99.90;;;;;;6125389;23;20229;-75
2022/08/02 03:51:12;;;;;;;2.78;2.58;;;17.70;99.90;;;;;;6125511;23;20221;-75
2022/08/02 03:53:38;;;;;;;2.65;2.53;;;17.80;99.90;;;;;;6125732;23;20161;-75
2022/08/02 03:56:05;;;;;;;2.72;2.53;;;17.80;99.90;;;;;;6125681;23;20154;-74
2022/08/02 03:58:32;;;;;;;2.88;2.67;;;17.80;99.90;;;;;;6125351;23;20252;-75
2022/08/02 04:00:58;;;;;;;2.80;2.60;;;17.90;99.90;;;;;;6123094;23;20204;-75
2022/08/02 04:03:25;;;;;;;3.17;2.88;;;18.00;99.90;;;;;;6125535;23;20154;-75
2022/08/02 04:05:51;;;;;;;3.33;3.10;;;18.00;99.90;;;;;;6125142;23;20646;-75
2022/08/02 04:08:16;;;;;;;2.50;2.30;;;18.00;99.90;;;;;;6125595;23;20211;-74
2022/08/02 04:13:30;;;;;;;2.95;2.72;;;18.00;99.90;;;;;;6125356;23;20161;-74
2022/08/02 04:16:02;;;;;;;3.00;2.80;;;17.80;99.90;;;;;;6125009;23;20249;-74
2022/08/02 04:18:33;;;;;;;3.28;2.97;;;17.80;99.90;;;;;;6125366;23;20142;-74
2022/08/02 04:21:01;;;;;;;2.85;2.65;;;17.70;99.90;;;;;;6125547;23;20197;-74
2022/08/02 04:23:29;;;;;;;4.07;3.38;;;17.70;99.90;;;;;;6124495;23;20212;-74
2022/08/02 04:25:55;;;;;;;3.50;3.22;;;17.70;99.90;;;;;;6125053;23;20705;-74
2022/08/02 04:28:21;;;;;;;3.55;2.88;;;17.80;99.90;;;;;;6124490;23;20154;-74
2022/08/02 04:30:49;;;;;;;3.58;2.90;;;17.90;99.90;;;;;;6123749;23;20273;-75
2022/08/02 04:33:16;;;;;;;2.90;2.70;;;17.90;99.90;;;;;;6122555;23;20569;-74
2022/08/02 04:35:43;;;;;;;2.92;2.70;;;17.90;99.90;;;;;;6120809;23;20173;-76
2022/08/02 04:38:11;;;;;;;3.40;2.97;;;17.90;99.90;;;;;;6118662;23;20186;-75
2022/08/02 04:40:37;;;;;;;3.35;3.05;;;18.10;99.90;;;;;;6117938;23;20658;-75
2022/08/02 04:43:03;;;;;;;3.30;3.00;;;18.10;99.90;;;;;;6118043;23;20162;-75
2022/08/02 04:45:30;;;;;;;2.55;2.40;;;18.20;99.90;;;;;;6118170;23;20530;-75
2022/08/02 04:47:55;;;;;;;3.30;3.00;;;18.30;99.90;;;;;;6118177;23;20606;-76
2022/08/02 04:50:21;;;;;;;2.83;2.63;;;18.30;99.90;;;;;;6118910;23;20146;-74
2022/08/02 04:52:47;;;;;;;3.17;2.88;;;18.40;99.90;;;;;;6118403;23;20214;-74
2022/08/02 04:55:12;;;;;;;2.83;2.63;;;18.40;99.90;;;;;;6119248;23;20225;-76
2022/08/02 04:57:56;;;;;;;3.08;2.80;;;18.50;99.90;;;;;;6124391;23;20158;-74
2022/08/02 05:00:23;;;;;;;2.95;2.75;;;18.50;99.90;;;;;;6124388;23;20482;-74
2022/08/02 05:02:49;;;;;;;2.58;2.45;;;18.50;99.90;;;;;;6124844;23;20160;-76
2022/08/02 05:05:15;;;;;;;2.88;2.67;;;18.60;99.90;;;;;;6124644;23;20193;-75
2022/08/02 05:07:41;;;;;;;2.72;2.58;;;18.70;99.90;;;;;;6124450;23;20150;-74
2022/08/02 05:10:07;;;;;;;3.08;2.88;;;18.70;99.90;;;;;;6124068;23;20137;-75
2022/08/02 05:12:32;;;;;;;2.92;2.45;;;18.80;99.90;;;;;;6124659;23;20147;-77
2022/08/02 05:14:58;;;;;;;5.97;2.60;;;18.80;99.90;;;;;;6124792;23;20174;-77
2022/08/02 05:17:23;;;;;;;2.65;2.30;;;18.90;99.90;;;;;;6124957;23;20185;-76
2022/08/02 05:19:49;;;;;;;2.72;2.53;;;18.90;99.90;;;;;;6122875;23;20229;-77
2022/08/02 05:22:15;;;;;;;2.97;2.78;;;19.00;99.90;;;;;;6123394;23;20158;-77
2022/08/02 05:24:40;;;;;;;3.05;2.78;;;19.10;99.90;;;;;;6124227;23;20240;-76
2022/08/02 05:27:06;;;;;;;2.33;2.15;;;19.20;99.90;;;;;;6122950;23;20149;-77
2022/08/02 05:29:32;;;;;;;3.10;2.90;;;19.30;99.90;;;;;;6124598;23;20145;-77
2022/08/02 05:31:57;;;;;;;3.20;2.42;;;19.30;99.90;;;;;;6124891;23;20229;-77
2022/08/02 05:34:23;;;;;;;3.00;2.80;;;19.30;99.90;;;;;;6124329;23;20259;-76
2022/08/02 05:36:48;;;;;;;2.90;2.60;;;19.40;99.90;;;;;;6124707;23;20161;-75
2022/08/02 05:39:14;;;;;;;2.70;2.50;;;19.40;99.90;;;;;;6123851;23;20188;-76
2022/08/02 05:41:40;;;;;;;2.45;2.35;;;19.50;99.90;;;;;;6124267;23;20554;-77
2022/08/02 05:44:05;;;;;;;3.85;2.45;;;19.60;99.90;;;;;;6125789;23;20185;-77
2022/08/02 05:46:31;;;;;;;3.25;2.70;;;19.60;99.90;;;;;;6099490;23;20595;-76
2022/08/02 05:48:57;;;;;;;2.55;2.33;;;19.60;99.90;;;;;;6096743;23;20154;-76
2022/08/02 05:51:34;;;;;;;2.20;2.10;;;19.70;99.90;;;;;;6123530;23;20150;-75
2022/08/02 05:54:26;;;;;;;2.40;2.20;;;19.80;99.90;;;;;;6124301;23;20587;-72
2022/08/02 05:57:04;;;;;;;2.53;2.33;;;19.80;99.90;;;;;;6125194;23;20193;-73
2022/08/02 05:59:46;;;;;;;2.50;2.30;;;19.90;99.90;;;;;;6124658;23;20571;-72
2022/08/02 06:02:34;;;;;;;3.00;2.42;;;19.80;99.90;;;;;;6124675;23;20141;-72
2022/08/02 06:05:13;;;;;;;2.30;2.20;;;19.90;99.90;;;;;;6123942;23;20193;-71
2022/08/02 06:07:44;;;;;;;2.72;2.53;;;19.90;99.90;;;;;;6124504;23;20150;-69
2022/08/02 06:10:12;;;;;;;2.30;2.10;;;19.90;99.90;;;;;;6124429;23;20311;-68
2022/08/02 06:12:43;;;;;;;2.50;2.35;;;20.00;99.90;;;;;;6124544;23;20146;-70
2022/08/02 06:15:14;;;;;;;2.80;2.00;;;20.10;99.90;;;;;;6122628;23;20178;-71
2022/08/02 06:17:40;;;;;;;2.20;2.10;;;20.20;99.90;;;;;;6125072;23;20710;-71
2022/08/02 06:20:07;;;;;;;2.45;2.25;;;20.20;99.90;;;;;;6126509;23;20610;-71
2022/08/02 06:22:33;;;;;;;2.33;2.10;;;20.40;99.90;;;;;;6121665;23;20180;-74
2022/08/02 06:24:59;;;;;;;2.17;1.92;;;20.40;99.90;;;;;;6124685;23;20193;-68
2022/08/02 06:27:29;;;;;;;2.45;2.30;;;20.40;99.90;;;;;;6126659;23;20149;-73
2022/08/02 06:29:55;;;;;;;2.30;2.17;;;20.50;99.90;;;;;;6099732;23;20221;-71
2022/08/02 06:32:21;;;;;;;2.40;2.20;;;20.60;99.90;;;;;;6124559;23;20154;-72
2022/08/02 06:34:46;;;;;;;2.42;2.30;;;20.70;99.90;;;;;;6123315;23;20170;-72
2022/08/02 06:37:24;;;;;;;2.30;2.17;;;20.90;99.90;;;;;;6123765;23;20157;-71
2022/08/02 06:39:59;;;;;;;2.10;1.95;;;21.00;99.90;;;;;;6098234;23;20165;-72
2022/08/02 06:42:47;;;;;;;2.10;2.00;;;21.10;99.90;;;;;;6124286;23;20147;-71
2022/08/02 06:45:13;;;;;;;2.50;2.30;;;21.20;99.90;;;;;;6115949;23;20503;-74
2022/08/02 06:47:39;;;;;;;2.20;2.10;;;21.30;99.90;;;;;;6118865;23;20225;-71
2022/08/02 06:50:05;;;;;;;3.50;2.42;;;21.50;99.90;;;;;;6124864;23;20145;-72
2022/08/02 06:52:31;;;;;;;3.35;2.67;;;21.60;99.90;;;;;;6100088;23;20150;-74
2022/08/02 06:54:58;;;;;;;3.75;2.40;;;21.70;99.90;;;;;;6125439;23;20176;-77
2022/08/02 06:57:23;;;;;;;2.20;2.05;;;21.70;99.90;;;;;;6123552;23;20691;-77
2022/08/02 06:59:49;;;;;;;2.33;2.15;;;21.80;99.90;;;;;;6125160;23;20149;-77
2022/08/02 07:02:15;;;;;;;3.03;2.28;;;21.90;99.90;;;;;;6123259;23;20157;-77
2022/08/02 07:04:40;;;;;;;2.42;2.03;;;21.90;99.90;;;;;;6096321;23;20194;-75
2022/08/02 07:07:06;;;;;;;2.15;2.05;;;22.00;99.90;;;;;;6122854;23;20197;-75
2022/08/02 07:09:31;;;;;;;2.50;2.40;;;22.00;99.90;;;;;;6123078;23;20204;-75
2022/08/02 07:11:57;;;;;;;6.10;2.25;;;22.10;99.90;;;;;;6123620;23;20225;-75
2022/08/02 07:14:23;;;;;;;2.47;2.28;;;22.10;99.90;;;;;;6122145;23;20253;-75
2022/08/02 07:16:48;;;;;;;2.72;2.30;;;22.30;99.90;;;;;;6124098;23;20186;-75
2022/08/02 07:19:14;;;;;;;2.83;2.20;;;22.50;99.90;;;;;;6125119;23;20209;-74
2022/08/02 07:21:39;;;;;;;5.78;2.67;;;22.60;99.90;;;;;;6098784;23;20209;-75
2022/08/02 07:24:05;;;;;;;2.10;2.00;;;22.70;99.90;;;;;;6125051;23;20579;-74
2022/08/02 07:26:31;;;;;;;4.60;2.58;;;22.80;99.90;;;;;;6123593;23;20181;-75
2022/08/02 07:28:57;;;;;;;2.28;2.00;;;23.00;99.90;;;;;;6125419;23;20209;-75
2022/08/02 07:31:23;;;;;;;2.85;2.50;;;23.10;99.90;;;;;;6125405;23;20146;-75
2022/08/02 07:33:48;;;;;;;2.25;2.05;;;23.30;99.90;;;;;;6125583;23;20169;-75
2022/08/02 07:36:14;;;;;;;2.30;2.20;;;23.40;99.90;;;;;;6125328;23;20186;-75
2022/08/02 07:38:39;;;;;;;1.60;1.60;;;23.50;99.90;;;;;;6099232;23;20632;-75
2022/08/02 07:41:05;;;;;;;2.78;2.30;;;23.60;99.90;;;;;;6125705;23;20158;-75
2022/08/02 07:43:31;;;;;;;2.25;2.05;;;23.70;99.90;;;;;;6125253;23;20157;-74
2022/08/02 07:45:56;;;;;;;2.13;2.03;;;23.80;99.90;;;;;;6125352;23;20193;-75
2022/08/02 07:48:22;;;;;;;1.85;1.75;;;23.90;99.90;;;;;;6125584;23;20744;-74
2022/08/02 07:50:48;;;;;;;3.83;2.13;;;24.00;99.90;;;;;;6125106;23;20157;-75
2022/08/02 07:53:13;;;;;;;2.63;2.28;;;24.20;99.90;;;;;;6125485;23;20146;-75
2022/08/02 07:55:39;;;;;;;2.20;2.10;;;24.40;99.90;;;;;;6125455;23;20181;-74
2022/08/02 07:58:05;;;;;;;3.63;2.67;;;24.50;99.90;;;;;;6125416;23;20154;-75
2022/08/02 08:00:31;;;;;;;1.88;1.77;;;24.60;99.90;;;;;;6124655;23;20154;-74
2022/08/02 08:02:58;;;;;;;2.58;2.38;;;24.80;99.90;;;;;;6125445;23;20665;-75
2022/08/02 08:05:23;;;;;;;2.60;2.35;;;24.90;99.90;;;;;;6125145;23;20190;-75
2022/08/02 08:07:49;;;;;;;2.30;2.10;;;25.00;99.90;;;;;;6124970;23;20176;-75
2022/08/02 08:10:14;;;;;;;2.05;1.95;;;24.90;99.90;;;;;;6125014;23;20150;-75
2022/08/02 08:12:40;;;;;;;1.98;1.88;;;24.80;99.90;;;;;;6125340;23;20182;-75
2022/08/02 08:15:06;;;;;;;1.90;1.80;;;24.90;99.90;;;;;;6125217;23;20180;-74
2022/08/02 08:17:32;;;;;;;2.72;2.00;;;25.10;99.90;;;;;;6125042;23;20161;-74
2022/08/02 08:19:57;;;;;;;2.28;2.17;;;25.30;99.90;;;;;;6124808;23;20158;-75
2022/08/02 08:22:23;;;;;;;1.90;1.77;;;25.30;99.90;;;;;;6125450;23;20178;-75
2022/08/02 08:24:49;;;;;;;1.90;1.80;;;25.30;99.90;;;;;;6124211;23;20193;-72
2022/08/02 08:27:16;;;;;;;2.03;1.92;;;25.40;99.90;;;;;;6098712;23;20158;-69
2022/08/02 08:29:42;;;;;;;1.92;1.83;;;25.60;99.90;;;;;;6124961;23;20146;-70
2022/08/02 08:32:08;;;;;;;2.08;1.98;;;25.80;99.90;;;;;;6124863;23;20154;-70
2022/08/02 08:34:34;;;;;;;1.95;1.85;;;26.00;99.90;;;;;;6124511;23;20180;-69
2022/08/02 08:37:01;;;;;;;2.22;2.03;;;26.30;99.90;;;;;;6124741;23;20181;-70
2022/08/02 08:39:27;;;;;;;2.05;1.90;;;26.40;99.90;;;;;;6124326;23;20154;-70
2022/08/02 08:41:53;;;;;;;5.70;2.10;;;26.50;99.90;;;;;;6124116;23;20245;-71
2022/08/02 08:44:18;;;;;;;3.17;2.20;;;26.60;99.90;;;;;;6124655;23;20197;-72
2022/08/02 08:46:48;;;;;;;1.67;1.58;;;26.60;99.90;;;;;;6124432;23;20150;-69
2022/08/02 08:49:31;;;;;;;2.00;1.90;;;26.60;99.90;;;;;;6123723;23;20150;-69
2022/08/02 08:52:02;;;;;;;2.10;2.00;;;26.60;99.90;;;;;;6099161;23;20142;-69
2022/08/02 08:54:30;;;;;;;1.73;1.63;;;26.70;99.90;;;;;;6124952;23;20182;-70
2022/08/02 08:56:56;;;;;;;3.25;2.20;;;26.70;99.90;;;;;;6124332;23;20154;-74
2022/08/02 08:59:22;;;;;;;1.73;1.70;;;26.40;99.90;;;;;;6106729;23;20154;-71
2022/08/02 09:01:49;;;;;;;1.73;1.63;;;26.40;99.90;;;;;;6124977;23;20237;-71
2022/08/02 09:04:15;;;;;;;2.15;1.95;;;26.50;99.90;;;;;;6124155;23;20588;-71
2022/08/02 09:06:41;;;;;;;2.40;1.98;;;26.50;99.90;;;;;;6123760;23;20202;-72
2022/08/02 09:09:07;;;;;;;1.98;1.77;;;26.60;99.90;;;;;;6124341;23;20154;-73
2022/08/02 09:11:33;;;;;;;1.95;1.85;;;26.70;99.90;;;;;;6124580;23;20221;-69
2022/08/02 09:14:05;;;;;;;1.90;1.80;;;26.80;99.90;;;;;;5067189;28;20565;-72
2022/08/02 09:16:42;;;;;;;1.88;1.80;;;27.00;99.90;;;;;;5047377;28;20784;-72
2022/08/02 09:19:19;;;;;;;1.80;1.70;;;27.10;99.90;;;;;;5046429;28;20216;-72
2022/08/02 09:21:45;;;;;;;2.28;2.08;;;27.40;99.90;;;;;;5046214;28;20167;-74
2022/08/02 09:24:16;;;;;;;1.88;1.77;;;27.40;99.90;;;;;;5048332;28;20196;-74
2022/08/02 09:26:42;;;;;;;1.88;1.60;;;27.50;99.90;;;;;;5040435;28;20195;-73
2022/08/02 09:29:08;;;;;;;3.97;2.22;;;27.80;99.70;;;;;;5048392;28;20614;-72
2022/08/02 09:31:34;;;;;;;2.17;1.90;;;28.50;98.10;;;;;;5047530;28;20172;-71
2022/08/02 09:34:00;;;;;;;2.08;1.77;;;29.90;94.80;;;;;;5048502;28;20253;-71
2022/08/02 09:36:42;;;;;;;2.78;1.77;;;31.80;90.40;;;;;;5042068;28;20176;-73
2022/08/02 09:39:13;;;;;;;1.70;1.60;;;33.80;81.60;;;;;;5048324;28;20171;-73
2022/08/02 09:41:41;;;;;;;2.00;1.90;;;35.90;69.80;;;;;;5048625;28;20246;-77
2022/08/02 09:44:09;;;;;;;1.80;1.70;;;37.20;64.80;;;;;;5041219;28;20214;-73
2022/08/02 09:46:37;;;;;;;1.90;1.75;;;37.80;60.20;;;;;;5046872;28;20172;-72
2022/08/02 09:49:08;;;;;;;2.00;1.85;;;38.40;57.90;;;;;;5044647;28;20175;-72
2022/08/02 09:51:38;;;;;;;1.58;1.58;;;39.70;55.20;;;;;;5045481;28;20239;-70
2022/08/02 09:54:07;;;;;;;1.55;1.17;;;41.00;53.00;;;;;;5045174;28;20215;-70
2022/08/02 09:56:54;;;;;;;2.15;1.20;;;42.30;48.70;;;;;;5044536;28;20206;-71
2022/08/02 09:59:23;;;;;;;1.60;1.50;;;42.70;47.70;;;;;;5044977;28;20172;-71
2022/08/02 10:01:49;;;;;;;1.65;1.30;;;42.90;46.40;;;;;;5046337;28;20522;-71
2022/08/02 10:04:18;;;;;;;1.63;1.52;;;43.80;44.50;;;;;;5045178;28;20191;-71
2022/08/02 10:06:43;;;;;;;2.30;1.60;;;44.10;43.70;;;;;;5043507;28;20184;-70
2022/08/02 10:09:12;;;;;;;1.30;1.20;;;44.00;43.60;;;;;;5046303;28;20191;-71
2022/08/02 10:11:38;;;;;;;2.65;1.40;;;42.70;44.00;;;;;;5044674;28;20168;-71
2022/08/02 10:14:05;;;;;;;1.30;1.30;;;41.10;46.00;;;;;;5043176;28;20659;-70
2022/08/02 10:16:33;;;;;;;1.33;1.30;;;40.10;47.50;;;;;;5044865;28;20578;-69
2022/08/02 10:19:01;;;;;;;1.10;1.10;;;39.60;48.30;;;;;;5043752;28;20183;-71
2022/08/02 10:21:48;;;;;;;3.13;1.50;;;40.60;46.70;;;;;;5048105;28;20665;-71
2022/08/02 10:24:27;;;;;;;1.40;1.30;;;41.70;45.30;;;;;;5037752;28;20203;-71
2022/08/02 10:26:53;;;;;;;1.80;1.70;;;41.80;44.60;;;;;;5029579;28;20185;-70
2022/08/02 10:29:26;;;;;;;1.00;1.00;;;42.10;44.40;;;;;;5033652;28;20187;-70
2022/08/02 10:31:59;;;;;;;1.88;1.77;;;43.10;43.40;;;;;;5029154;28;20267;-70
2022/08/02 10:34:39;;;;;;;1.65;1.60;;;44.20;41.50;;;;;;5034006;28;20246;-71
2022/08/02 10:37:07;;;;;;;1.63;1.10;;;44.70;40.80;;;;;;5033134;28;20666;-72
2022/08/02 10:39:43;;;;;;;1.15;1.15;;;43.70;40.70;;;;;;5033583;28;20238;-70
2022/08/02 10:42:10;;;;;;;1.00;1.00;;;42.00;41.90;;;;;;5033028;28;20182;-70
2022/08/02 10:44:37;;;;;;;2.17;1.50;;;41.10;43.60;;;;;;5032336;28;20269;-70
2022/08/02 10:47:24;;;;;;;2.55;1.60;;;39.50;45.60;;;;;;5033594;28;20237;-70
2022/08/02 10:49:58;;;;;;;1.45;1.35;;;38.00;47.60;;;;;;5033126;28;20263;-70
2022/08/02 10:52:30;;;;;;;1.83;1.50;;;36.70;49.50;;;;;;5030522;28;20239;-70
2022/08/02 10:55:10;;;;;;;1.20;1.20;;;35.70;51.40;;;;;;5031444;28;20211;-70
2022/08/02 10:57:36;;;;;;;1.35;1.35;;;35.80;50.90;;;;;;5031454;28;20164;-71
2022/08/02 11:00:02;;;;;;;1.67;1.58;;;36.00;51.10;;;;;;5032103;28;20180;-71
2022/08/02 11:02:44;;;;;;;2.15;1.45;;;36.60;50.40;;;;;;5032287;28;20535;-71
2022/08/02 11:05:14;;;;;;;1.98;1.52;;;38.50;48.50;;;;;;5033588;28;20222;-71
2022/08/02 11:07:48;;;;;;;1.58;1.40;;;40.50;45.30;;;;;;5031822;28;20173;-71
2022/08/02 11:10:25;;;;;;;1.23;1.13;;;42.00;43.20;;;;;;5030963;28;20183;-71
2022/08/02 11:13:06;;;;;;;1.42;1.33;;;43.00;42.30;;;;;;5030552;28;20199;-71
2022/08/02 11:16:10;;;;;;;1.10;1.10;;;44.60;40.50;;;;;;5030703;28;20194;-70
2022/08/02 11:18:50;;;;;;;1.20;1.20;;;45.20;38.10;;;;;;5029372;28;20195;-71
2022/08/02 11:21:29;;;;;;;1.42;1.33;;;43.90;38.60;;;;;;5028854;28;20180;-71
2022/08/02 11:23:55;;;;;;;1.30;1.30;;;42.20;41.40;;;;;;5028552;28;20279;-72
2022/08/02 11:26:29;;;;;;;1.60;1.50;;;41.00;42.90;;;;;;5032944;28;20726;-72
2022/08/02 11:28:59;;;;;;;1.20;1.20;;;40.20;43.10;;;;;;5029969;28;20267;-71
2022/08/02 11:31:25;;;;;;;1.33;1.33;;;39.20;43.30;;;;;;5032254;28;20259;-71
2022/08/02 11:33:51;;;;;;;1.20;1.20;;;38.40;44.60;;;;;;5030061;28;20425;-70
2022/08/02 11:36:17;;;;;;;1.30;1.30;;;38.20;43.30;;;;;;5030758;28;20689;-70
2022/08/02 11:38:43;;;;;;;1.20;1.20;;;38.10;43.30;;;;;;5031370;28;20650;-70
2022/08/02 11:41:21;;;;;;;1.13;1.13;;;39.50;41.50;;;;;;5028023;28;20179;-70
2022/08/02 11:43:53;;;;;;;1.30;1.30;;;40.60;41.30;;;;;;5032921;28;20180;-71
2022/08/02 11:46:19;;;;;;;1.40;1.30;;;41.30;40.30;;;;;;5031013;28;20183;-70
2022/08/02 11:48:44;;;;;;;1.63;1.52;;;40.50;41.50;;;;;;5032566;28;20180;-71
2022/08/02 11:51:15;;;;;;;1.65;1.17;;;41.00;41.90;;;;;;5029094;28;20226;-71
2022/08/02 11:53:52;;;;;;;1.33;1.33;;;42.30;40.70;;;;;;5031762;28;20609;-70
2022/08/02 11:56:29;;;;;;;1.10;1.10;;;43.70;38.50;;;;;;5030653;28;20171;-70
2022/08/02 11:59:03;;;;;;;1.20;1.02;;;44.30;37.30;;;;;;5025102;28;20191;-73
2022/08/02 12:01:30;;;;;;;1.10;1.10;;;44.20;37.60;;;;;;5031788;28;20171;-69
2022/08/02 12:03:59;;;;;;;1.13;1.13;;;44.30;37.30;;;;;;5030344;28;20197;-69
2022/08/02 12:06:27;;;;;;;0.75;0.75;;;44.30;37.40;;;;;;5031974;28;20594;-69
2022/08/02 12:08:58;;;;;;;1.08;1.08;;;43.60;38.60;;;;;;5029831;28;20180;-69
2022/08/02 12:11:24;;;;;;;1.20;1.20;;;43.40;38.40;;;;;;5032050;28;20610;-69
2022/08/02 12:13:50;;;;;;;1.77;1.23;;;43.60;38.70;;;;;;5029110;28;20196;-70
2022/08/02 12:19:18;;;;;;;1.65;0.98;;;43.30;38.30;;;;;;5024740;28;20199;-72
2022/08/02 12:21:45;;;;;;;1.42;1.30;;;43.40;37.90;;;;;;5031137;28;20548;-73
2022/08/02 12:24:11;;;;;;;2.30;1.33;;;43.20;38.90;;;;;;5029767;28;20570;-74
2022/08/02 12:26:44;;;;;;;0.82;0.82;;;43.60;38.90;;;;;;5031809;28;20198;-73
2022/08/02 12:29:11;;;;;;;1.30;1.30;;;44.00;37.10;;;;;;5031339;28;20201;-74
2022/08/02 12:31:46;;;;;;;1.27;1.27;;;43.80;37.80;;;;;;5030183;28;20200;-73
2022/08/02 12:34:16;;;;;;;1.30;1.30;;;44.00;37.60;;;;;;5029126;28;20203;-72
2022/08/02 12:36:42;;;;;;;1.10;1.10;;;45.00;37.20;;;;;;5029535;28;20218;-72
2022/08/02 12:39:13;;;;;;;3.08;1.00;;;45.20;37.00;;;;;;5031339;28;20179;-71
2022/08/02 12:41:38;;;;;;;1.02;0.95;;;45.60;36.70;;;;;;5030464;28;20186;-72
2022/08/02 12:44:04;;;;;;;1.35;1.00;;;45.40;36.90;;;;;;5027130;28;20279;-73
2022/08/02 12:46:30;;;;;;;1.00;1.00;;;44.90;37.20;;;;;;5031310;28;20180;-74
2022/08/02 12:48:56;;;;;;;1.00;1.00;;;45.00;36.70;;;;;;5031650;28;20531;-73
2022/08/02 12:51:24;;;;;;;2.05;1.10;;;45.40;35.60;;;;;;5030106;28;20206;-73
2022/08/02 12:53:51;;;;;;;1.23;1.20;;;43.90;35.90;;;;;;5027729;28;20679;-72
2022/08/02 12:56:35;;;;;;;1.52;1.02;;;43.20;36.20;;;;;;5030359;28;20176;-72
2022/08/02 12:59:01;;;;;;;1.10;1.10;;;42.20;37.60;;;;;;5029370;28;20184;-71
2022/08/02 13:01:27;;;;;;;1.05;1.05;;;41.20;38.60;;;;;;5028052;28;20199;-72